Time;durP1;ratioP1;P1;durP2;ratioP2;P2;SDS_P1;SDS_P2;PMS_P1;PMS_P2;Temp;Humidity;BMP_temperature;BMP_pressure;BME280_temperature;BME280_humidity;BME280_pressure;Samples;Min_cycle;Max_cycle;Signal;HPM_P1;HPM_P2
2022/03/15 00:00:47;;;;;;;45.22;22.73;;;;;;;-1.49;100.00;99195.94;5085644;28;20114;-93
2022/03/15 00:06:36;;;;;;;41.88;21.67;;;;;;;-1.33;100.00;99253.88;5131442;28;20046;-93
2022/03/15 00:09:01;;;;;;;49.53;24.08;;;;;;;-1.54;100.00;99210.75;5070692;28;20032;-92
2022/03/15 00:11:27;;;;;;;47.40;23.95;;;;;;;-1.47;100.00;99244.94;5083539;28;20403;-92
2022/03/15 00:13:53;;;;;;;54.15;24.15;;;;;;;-1.80;100.00;99190.31;5083918;28;20019;-90
2022/03/15 00:16:57;;;;;;;52.67;24.13;;;;;;;-1.41;100.00;99257.25;5102132;28;20028;-92
2022/03/15 00:19:24;;;;;;;48.13;24.15;;;;;;;-1.57;100.00;99235.19;5085055;28;20403;-92
2022/03/15 00:21:53;;;;;;;58.10;26.75;;;;;;;-1.54;100.00;99229.09;5085587;28;20343;-91
2022/03/15 00:24:51;;;;;;;54.30;25.08;;;;;;;-1.35;100.00;99255.56;5085512;28;20095;-94
2022/03/15 00:27:17;;;;;;;62.05;29.90;;;;;;;-1.99;100.00;99135.84;5084855;28;20039;-93
2022/03/15 00:33:30;;;;;;;61.72;30.00;;;;;;;-1.30;100.00;99263.53;5121578;28;20058;-94
2022/03/15 00:35:59;;;;;;;50.03;23.20;;;;;;;-1.42;100.00;99245.00;5085589;28;20118;-94
2022/03/15 00:38:26;;;;;;;70.18;31.00;;;;;;;-1.56;100.00;99205.47;5103148;28;20118;-93
2022/03/15 00:40:51;;;;;;;69.15;31.40;;;;;;;-1.31;100.00;99251.25;5084504;28;20122;-93
2022/03/15 00:43:17;;;;;;;81.22;35.97;;;;;;;-1.40;100.00;99245.88;5084386;28;20065;-93
2022/03/15 00:46:06;;;;;;;76.88;32.88;;;;;;;-1.41;100.00;99244.13;5067345;28;20130;-93
2022/03/15 00:48:32;;;;;;;73.65;33.15;;;;;;;-1.50;100.00;99233.50;5082976;28;20024;-93
2022/03/15 00:54:21;;;;;;;64.13;31.00;;;;;;;-1.47;100.00;99244.03;5120528;28;20039;-94
2022/03/15 00:56:47;;;;;;;78.38;32.35;;;;;;;-1.88;100.00;99176.22;5102124;28;20414;-94
2022/03/15 00:59:14;;;;;;;79.68;32.13;;;;;;;-1.73;100.00;99218.38;5081645;28;20048;-92
2022/03/15 01:01:50;;;;;;;68.65;31.65;;;;;;;-1.70;100.00;99251.63;5080919;28;20561;-94
2022/03/15 01:04:15;;;;;;;68.43;31.70;;;;;;;-2.10;100.00;99184.66;5062143;28;20028;-92
2022/03/15 01:06:42;;;;;;;68.57;31.27;;;;;;;-1.94;100.00;99210.22;5063572;28;20034;-93
2022/03/15 01:09:09;;;;;;;89.85;37.67;;;;;;;-1.68;100.00;99228.91;5062747;28;20107;-93
2022/03/15 01:11:36;;;;;;;88.25;40.20;;;;;;;-1.98;100.00;99171.72;5064068;28;20032;-93
2022/03/15 01:17:24;;;;;;;98.75;43.50;;;;;;;-1.82;100.00;99168.44;5100726;28;20085;-95
2022/03/15 01:23:12;;;;;;;105.95;42.80;;;;;;;-1.60;100.00;99216.81;5099326;28;20050;-95
2022/03/15 01:38:28;;;;;;;65.40;32.60;;;;;;;-2.06;100.00;99223.13;5085672;28;20037;-93
2022/03/15 01:40:54;;;;;;;79.35;34.60;;;;;;;-2.24;100.00;99209.75;5064893;28;20439;-94
2022/03/15 01:46:42;;;;;;;78.57;34.15;;;;;;;-2.34;100.00;99207.88;5100294;28;20047;-94
2022/03/15 01:49:08;;;;;;;63.47;29.92;;;;;;;-2.43;100.00;99205.09;5081589;28;20102;-93
2022/03/15 01:51:34;;;;;;;60.25;27.50;;;;;;;-2.34;100.00;99223.59;5065150;28;20028;-95
2022/03/15 01:53:59;;;;;;;64.55;26.20;;;;;;;-2.45;100.00;99198.94;5064957;28;20086;-94
2022/03/15 01:56:28;;;;;;;58.55;25.83;;;;;;;-2.56;100.00;99192.66;5082215;28;20028;-94
2022/03/15 01:58:54;;;;;;;68.60;28.88;;;;;;;-2.40;100.00;99215.63;5072945;28;20430;-91
2022/03/15 02:01:20;;;;;;;69.43;28.52;;;;;;;-2.21;100.00;99241.25;5084463;28;20039;-94
2022/03/15 02:03:46;;;;;;;72.03;28.45;;;;;;;-2.32;100.00;99229.72;5085114;28;20122;-95
2022/03/15 02:06:11;;;;;;;60.80;25.73;;;;;;;-2.55;100.00;99212.78;5120475;28;20027;-95
2022/03/15 02:08:37;;;;;;;64.85;26.25;;;;;;;-2.42;100.00;99219.94;5085990;28;20110;-93
2022/03/15 02:11:03;;;;;;;54.97;24.48;;;;;;;-2.43;100.00;99212.97;5086140;28;20020;-92
2022/03/15 02:17:02;;;;;;;51.40;22.85;;;;;;;-2.46;100.00;99229.50;5121288;28;20066;-95
2022/03/15 02:19:32;;;;;;;50.03;23.38;;;;;;;-2.48;100.00;99219.84;5103141;28;20049;-93
2022/03/15 02:22:07;;;;;;;48.15;23.77;;;;;;;-2.54;100.00;99224.97;5083745;28;20528;-93
2022/03/15 02:24:34;;;;;;;52.17;22.63;;;;;;;-2.76;100.00;99189.69;5084287;28;20491;-94
2022/03/15 02:27:01;;;;;;;45.83;21.90;;;;;;;-2.55;100.00;99229.34;5082766;28;20027;-92
2022/03/15 02:29:27;;;;;;;45.80;21.15;;;;;;;-2.71;100.00;99214.25;5083473;28;20039;-94
2022/03/15 02:31:57;;;;;;;59.65;26.42;;;;;;;-3.07;100.00;99162.13;5083340;28;20024;-94
2022/03/15 02:34:23;;;;;;;50.78;23.35;;;;;;;-2.61;100.00;99223.09;5099993;28;20055;-95
2022/03/15 02:36:50;;;;;;;47.78;22.10;;;;;;;-2.66;100.00;99193.38;5083629;28;20078;-94
2022/03/15 02:39:28;;;;;;;52.95;23.25;;;;;;;-2.84;100.00;99144.19;5084167;28;20123;-95
2022/03/15 02:41:54;;;;;;;47.47;21.77;;;;;;;-2.68;100.00;99184.59;5083659;28;20482;-92
2022/03/15 02:44:22;;;;;;;48.20;21.40;;;;;;;-2.53;100.00;99200.56;5116932;28;20039;-93
2022/03/15 02:46:50;;;;;;;46.15;20.52;;;;;;;-2.64;100.00;99165.44;5082956;28;20023;-92
2022/03/15 02:55:47;;;;;;;44.65;20.27;;;;;;;-2.65;100.00;99195.13;5121001;28;20034;-94
2022/03/15 03:01:44;;;;;;;45.00;20.80;;;;;;;-2.51;100.00;99204.09;5094626;28;20047;-76
2022/03/15 03:04:10;;;;;;;49.90;21.23;;;;;;;-2.53;100.00;99206.69;5074629;28;20105;-78
2022/03/15 03:06:37;;;;;;;44.25;21.48;;;;;;;-2.57;100.00;99204.88;5049749;28;20055;-78
2022/03/15 03:09:04;;;;;;;49.53;22.23;;;;;;;-2.65;100.00;99197.75;5051659;28;20408;-78
2022/03/15 03:11:30;;;;;;;61.00;24.38;;;;;;;-2.65;100.00;99206.50;5039294;28;20036;-78
2022/03/15 03:13:57;;;;;;;45.13;20.77;;;;;;;-2.67;100.00;99199.44;5024503;28;20345;-78
2022/03/15 03:16:23;;;;;;;50.15;22.80;;;;;;;-2.83;100.00;99198.34;5054988;28;20120;-78
2022/03/15 03:18:53;;;;;;;53.00;23.23;;;;;;;-2.82;100.00;99197.44;5047117;28;20048;-79
2022/03/15 03:21:19;;;;;;;62.13;23.08;;;;;;;-2.76;100.00;99205.41;5054738;28;20032;-78
2022/03/15 03:23:44;;;;;;;58.95;25.67;;;;;;;-2.88;100.00;99182.53;5039253;28;20059;-78
2022/03/15 03:26:10;;;;;;;62.90;27.50;;;;;;;-2.76;100.00;99187.97;5067297;28;20070;-78
2022/03/15 03:28:39;;;;;;;54.13;26.02;;;;;;;-2.75;100.00;99184.50;5047416;28;20488;-78
2022/03/15 03:31:09;;;;;;;64.47;28.15;;;;;;;-2.87;100.00;99184.31;5029465;28;20587;-78
2022/03/15 03:33:35;;;;;;;76.07;33.58;;;;;;;-2.85;100.00;99181.69;5055687;28;20066;-80
2022/03/15 03:36:02;;;;;;;80.53;34.95;;;;;;;-2.89;100.00;99200.84;5055552;28;20103;-80
2022/03/15 03:38:28;;;;;;;73.88;34.17;;;;;;;-2.96;100.00;99210.31;5053065;28;20466;-80
2022/03/15 03:40:54;;;;;;;89.28;37.60;;;;;;;-3.10;100.00;99201.31;5046156;28;20550;-80
2022/03/15 03:43:20;;;;;;;80.65;30.88;;;;;;;-3.08;100.00;99196.13;5039475;28;20024;-80
2022/03/15 03:45:46;;;;;;;59.75;29.00;;;;;;;-3.16;100.00;99195.09;5048286;28;20120;-79
2022/03/15 03:48:12;;;;;;;58.65;28.73;;;;;;;-3.21;100.00;99197.63;5048615;28;20103;-79
2022/03/15 03:50:40;;;;;;;68.03;30.92;;;;;;;-3.25;100.00;99193.19;5035594;28;20391;-79
2022/03/15 03:53:05;;;;;;;76.43;31.65;;;;;;;-3.23;100.00;99194.13;5046319;28;20066;-79
2022/03/15 03:55:31;;;;;;;61.92;26.88;;;;;;;-3.19;100.00;99197.66;5046626;28;20572;-80
2022/03/15 03:57:57;;;;;;;58.17;24.75;;;;;;;-3.19;100.00;99203.75;5042588;28;20025;-80
2022/03/15 04:00:23;;;;;;;67.70;24.13;;;;;;;-3.32;100.00;99180.84;5064243;28;20056;-79
2022/03/15 04:02:50;;;;;;;59.35;24.10;;;;;;;-3.29;100.00;99201.81;5059451;28;20127;-94
2022/03/15 04:05:16;;;;;;;64.82;26.20;;;;;;;-3.35;100.00;99178.16;5082177;28;20023;-94
2022/03/15 04:07:43;;;;;;;58.65;25.95;;;;;;;-3.24;100.00;99187.13;5066737;28;20016;-94
2022/03/15 04:10:12;;;;;;;79.78;32.83;;;;;;;-3.30;100.00;99197.47;5082756;28;20028;-93
2022/03/15 04:12:38;;;;;;;72.20;30.73;;;;;;;-3.17;100.00;99193.34;5065638;28;20051;-93
2022/03/15 04:15:05;;;;;;;63.72;29.95;;;;;;;-3.17;100.00;99180.25;5067001;28;20008;-93
2022/03/15 04:17:33;;;;;;;69.40;30.80;;;;;;;-3.09;100.00;99208.31;5065551;28;20020;-91
2022/03/15 04:19:58;;;;;;;77.25;32.53;;;;;;;-3.21;100.00;99202.88;5064475;28;20107;-92
2022/03/15 04:22:24;;;;;;;73.13;29.70;;;;;;;-3.04;100.00;99206.66;5064697;28;20087;-91
2022/03/15 04:24:50;;;;;;;67.60;29.77;;;;;;;-3.00;100.00;99212.84;5064447;28;20036;-91
2022/03/15 04:27:16;;;;;;;67.10;30.15;;;;;;;-3.08;100.00;99198.75;5080445;28;20035;-92
2022/03/15 04:33:12;;;;;;;76.75;31.55;;;;;;;-3.20;100.00;99199.41;5100596;28;20070;-91
2022/03/15 04:35:37;;;;;;;59.67;27.38;;;;;;;-3.21;100.00;99186.28;5073780;28;20060;-76
2022/03/15 04:38:03;;;;;;;64.45;28.10;;;;;;;-3.16;100.00;99206.44;5080229;28;20034;-90
2022/03/15 04:49:21;;;;;;;67.65;26.63;;;;;;;-3.35;100.00;99191.25;5721031;23;20049;-96
2022/03/15 04:52:13;;;;;;;64.53;25.92;;;;;;;-3.47;100.00;99172.69;5016054;28;20039;-93
2022/03/15 04:54:52;;;;;;;47.50;23.13;;;;;;;-3.17;100.00;99219.50;5120359;22;20113;-95
2022/03/15 04:57:24;;;;;;;51.72;23.42;;;;;;;-3.34;100.00;99180.81;5052100;28;20163;-95
2022/03/15 04:59:57;;;;;;;48.35;23.98;;;;;;;-3.30;100.00;99198.34;5052962;28;20033;-95
2022/03/15 05:02:31;;;;;;;58.13;24.20;;;;;;;-3.37;100.00;99196.47;5051989;28;20071;-94
2022/03/15 05:05:09;;;;;;;61.30;26.30;;;;;;;-3.38;100.00;99149.34;5052573;28;20017;-94
2022/03/15 05:07:46;;;;;;;64.55;27.85;;;;;;;-3.30;100.00;99164.34;5052849;28;20021;-93
2022/03/15 05:12:48;;;;;;;57.25;25.33;;;;;;;-3.37;100.00;99114.50;5512306;22;20046;-94
2022/03/15 05:15:40;;;;;;;60.72;28.13;;;;;;;-3.13;100.00;99141.09;5031387;28;20137;-95
2022/03/15 05:18:23;;;;;;;65.68;27.77;;;;;;;-2.60;100.00;99177.75;4978490;28;20026;-93
2022/03/15 05:20:52;;;;;;;;;;;;;;;-1.85;100.00;99227.81;4994495;28;20056;-90
2022/03/15 05:23:21;;;;;;;66.57;25.92;;;;;;;-1.25;99.04;99212.84;5024914;28;19909;-87
2022/03/15 05:28:37;;;;;;;82.95;35.63;;;;;;;0.88;82.17;99216.16;5095828;23;20053;-93
2022/03/15 05:31:04;;;;;;;75.20;33.38;;;;;;;1.49;75.89;99200.47;4995572;28;20516;-92
2022/03/15 05:33:33;;;;;;;57.45;26.20;;;;;;;2.45;71.59;99196.81;4993661;28;20048;-94
2022/03/15 05:36:08;;;;;;;53.83;24.00;;;;;;;3.83;65.76;99167.75;4992676;28;20034;-94
2022/03/15 05:38:34;;;;;;;56.17;24.08;;;;;;;4.46;60.38;99101.72;4991200;28;20107;-95
2022/03/15 05:41:19;;;;;;;52.17;25.17;;;;;;;5.58;55.37;99108.00;4991700;28;20084;-95
2022/03/15 05:43:45;;;;;;;70.07;27.60;;;;;;;6.94;52.56;99158.50;4980928;28;20034;-81
2022/03/15 05:46:10;;;;;;;59.50;29.40;;;;;;;8.02;49.87;99172.81;4989466;28;20450;-82
2022/03/15 05:48:39;;;;;;;67.95;27.73;;;;;;;8.32;47.83;99160.47;4977336;28;20158;-78
2022/03/15 05:51:05;;;;;;;59.78;31.75;;;;;;;8.69;46.39;99161.22;4979090;28;20030;-77
2022/03/15 05:53:31;;;;;;;56.33;29.50;;;;;;;9.82;44.48;99161.25;4988801;28;20033;-78
2022/03/15 05:55:56;;;;;;;64.95;34.35;;;;;;;9.67;43.89;99149.28;4975068;28;20445;-78
2022/03/15 05:58:22;;;;;;;75.65;39.60;;;;;;;9.66;43.72;99147.50;4974321;28;20030;-77
2022/03/15 06:00:47;;;;;;;76.10;40.08;;;;;;;10.01;44.87;99170.41;4956452;28;20034;-75
2022/03/15 06:03:13;;;;;;;72.50;39.45;;;;;;;10.27;43.19;99161.53;4982787;28;20030;-76
2022/03/15 06:05:39;;;;;;;85.50;40.78;;;;;;;9.55;45.66;99176.38;4979810;28;20044;-76
2022/03/15 06:08:06;;;;;;;101.97;50.35;;;;;;;10.14;43.41;99177.13;4979402;28;20113;-77
2022/03/15 06:10:31;;;;;;;93.13;47.22;;;;;;;10.31;42.81;99168.50;4955377;28;20593;-75
2022/03/15 06:12:58;;;;;;;91.50;46.17;;;;;;;10.41;42.15;99169.06;4973669;28;20215;-75
2022/03/15 06:15:24;;;;;;;75.78;40.15;;;;;;;10.61;41.49;99169.25;4971841;28;20406;-76
2022/03/15 06:17:56;;;;;;;77.55;42.47;;;;;;;10.39;41.54;99176.28;4987145;28;20031;-76
2022/03/15 06:20:27;;;;;;;174.18;76.82;;;;;;;9.83;42.75;99181.72;4975594;28;20061;-89
2022/03/15 06:22:53;;;;;;;216.43;99.95;;;;;;;9.60;43.44;99185.13;4978674;28;20045;-88
2022/03/15 06:25:19;;;;;;;133.65;67.70;;;;;;;9.53;43.07;99161.34;4996596;28;20061;-87
2022/03/15 06:27:47;;;;;;;113.25;59.45;;;;;;;9.89;42.26;99176.16;4980120;28;20077;-87
2022/03/15 06:30:16;;;;;;;108.32;57.80;;;;;;;9.37;43.15;99182.31;5000010;28;20030;-87
2022/03/15 06:32:41;;;;;;;117.00;59.22;;;;;;;8.68;44.47;99163.91;4997865;28;20022;-89
2022/03/15 06:35:09;;;;;;;118.22;61.70;;;;;;;9.51;43.93;99196.09;4966716;28;20032;-88
2022/03/15 06:37:39;;;;;;;140.75;72.95;;;;;;;10.17;42.13;99160.97;4996176;28;20051;-87
2022/03/15 06:40:07;;;;;;;134.13;73.20;;;;;;;10.91;41.10;99165.44;4983420;28;20472;-89
2022/03/15 06:42:33;;;;;;;143.10;73.40;;;;;;;11.16;40.08;99150.19;4983450;28;20087;-88
2022/03/15 06:44:59;;;;;;;144.05;72.75;;;;;;;11.84;39.06;99136.72;4983679;28;20033;-89
2022/03/15 06:47:24;;;;;;;129.50;67.05;;;;;;;12.20;37.91;99153.09;4999714;28;20058;-88
2022/03/15 06:49:50;;;;;;;123.07;62.60;;;;;;;12.93;37.14;99149.81;5000503;28;20064;-89
2022/03/15 06:52:16;;;;;;;110.50;58.05;;;;;;;12.24;37.41;99145.78;4999785;28;20413;-89
2022/03/15 06:54:42;;;;;;;99.45;56.17;;;;;;;12.26;37.45;99139.41;4982981;28;20032;-88
2022/03/15 06:57:08;;;;;;;119.90;63.63;;;;;;;12.50;37.53;99141.03;4983144;28;20021;-89
2022/03/15 06:59:34;;;;;;;135.70;67.47;;;;;;;12.82;37.34;99169.13;4983247;28;20128;-89
2022/03/15 07:02:00;;;;;;;117.28;63.13;;;;;;;12.66;37.46;99145.72;4999271;28;20033;-88
2022/03/15 07:04:26;;;;;;;109.03;58.75;;;;;;;12.16;37.80;99162.19;4997362;28;20080;-90
2022/03/15 07:09:35;;;;;;;89.45;52.30;;;;;;;11.26;40.01;99178.34;5005072;28;20033;-90
2022/03/15 07:12:02;;;;;;;93.47;54.22;;;;;;;12.30;38.54;99165.19;4984716;28;20473;-89
2022/03/15 07:14:27;;;;;;;89.00;48.72;;;;;;;11.62;37.99;99159.09;5001799;28;20037;-89
2022/03/15 07:16:53;;;;;;;98.15;51.28;;;;;;;9.89;41.68;99161.94;5000260;28;20109;-89
2022/03/15 07:19:18;;;;;;;86.22;50.17;;;;;;;10.69;41.30;99184.09;5000346;28;20449;-89
2022/03/15 07:21:44;;;;;;;77.85;44.88;;;;;;;11.06;41.34;99204.16;4984089;28;20030;-89
2022/03/15 07:24:10;;;;;;;77.78;44.30;;;;;;;11.22;40.02;99179.44;5000217;28;20125;-89
2022/03/15 07:26:36;;;;;;;76.43;41.88;;;;;;;10.90;40.79;99179.75;5000557;28;20064;-90
2022/03/15 07:29:02;;;;;;;77.45;42.85;;;;;;;11.63;39.46;99177.78;4997157;28;20657;-90
2022/03/15 07:31:28;;;;;;;81.65;44.88;;;;;;;11.15;40.80;99185.94;4980890;28;20050;-92
2022/03/15 07:33:57;;;;;;;85.85;49.20;;;;;;;12.89;38.56;99201.94;4997445;28;20119;-90
2022/03/15 07:36:26;;;;;;;83.53;43.97;;;;;;;13.92;36.43;99172.88;4980775;28;20072;-93
2022/03/15 07:38:52;;;;;;;85.60;44.13;;;;;;;14.27;35.33;99158.53;4998674;28;20027;-90
2022/03/15 07:44:42;;;;;;;64.10;35.67;;;;;;;15.48;32.90;99122.34;4998893;28;20045;-89
2022/03/15 07:47:15;;;;;;;72.75;41.15;;;;;;;15.78;32.47;99151.25;4997667;28;20026;-90
2022/03/15 07:49:41;;;;;;;63.28;36.65;;;;;;;15.47;33.07;99146.69;4997160;28;20065;-90
2022/03/15 07:52:07;;;;;;;66.78;35.35;;;;;;;16.21;31.94;99142.41;4997079;28;20031;-89
2022/03/15 07:54:34;;;;;;;59.10;34.33;;;;;;;14.76;33.90;99146.13;4979419;28;20030;-88
2022/03/15 07:56:59;;;;;;;66.20;34.70;;;;;;;14.77;33.92;99150.53;4995773;28;20022;-89
2022/03/15 07:59:25;;;;;;;63.38;31.33;;;;;;;13.76;34.69;99135.09;4979950;28;20030;-90
2022/03/15 08:01:51;;;;;;;58.13;32.42;;;;;;;15.27;33.26;99150.50;4995932;28;20030;-89
2022/03/15 08:04:19;;;;;;;79.57;34.85;;;;;;;15.90;32.08;99150.56;4995723;28;20070;-89
2022/03/15 08:06:45;;;;;;;63.25;31.60;;;;;;;16.45;31.16;99140.94;4996717;28;20026;-89
2022/03/15 08:09:11;;;;;;;53.20;29.73;;;;;;;16.00;31.32;99128.31;4971205;28;20564;-73
2022/03/15 08:11:38;;;;;;;53.72;29.15;;;;;;;16.60;30.81;99142.75;4981840;28;20110;-73
2022/03/15 08:14:03;;;;;;;67.65;32.28;;;;;;;16.38;32.22;99147.66;4986642;28;20021;-73
2022/03/15 08:16:29;;;;;;;41.25;24.83;;;;;;;16.43;31.50;99140.13;4983844;28;20399;-74
2022/03/15 08:18:55;;;;;;;67.38;26.95;;;;;;;17.09;30.62;99134.31;4972331;28;20030;-75
2022/03/15 08:21:22;;;;;;;44.90;24.20;;;;;;;17.80;29.59;99122.44;4972323;28;20054;-75
2022/03/15 08:23:48;;;;;;;40.38;24.33;;;;;;;18.52;28.81;99120.34;4972454;28;20030;-75
2022/03/15 08:26:14;;;;;;;37.38;22.45;;;;;;;18.54;28.77;99111.13;4988193;28;20027;-75
2022/03/15 08:28:40;;;;;;;39.50;23.52;;;;;;;18.87;28.45;99122.31;4955707;28;20411;-74
2022/03/15 08:31:05;;;;;;;42.05;23.52;;;;;;;19.06;27.84;99116.44;4984460;28;20031;-75
2022/03/15 08:33:31;;;;;;;39.40;22.30;;;;;;;19.40;27.16;99093.22;4960979;28;20465;-74
2022/03/15 08:35:57;;;;;;;40.28;22.35;;;;;;;18.04;28.68;99094.69;4979516;28;20477;-75
2022/03/15 08:38:23;;;;;;;50.28;23.42;;;;;;;18.47;28.50;99098.91;4987793;28;20118;-74
2022/03/15 08:40:49;;;;;;;42.78;22.55;;;;;;;18.52;28.51;99099.50;4959651;28;20414;-74
2022/03/15 08:43:15;;;;;;;46.55;22.13;;;;;;;19.71;27.04;99095.41;4959834;28;20028;-75
2022/03/15 08:45:40;;;;;;;41.75;22.40;;;;;;;19.99;26.56;99086.06;4981877;28;20042;-76
2022/03/15 08:48:07;;;;;;;35.78;19.77;;;;;;;19.95;26.31;99071.84;4991309;28;20019;-75
2022/03/15 08:50:33;;;;;;;40.85;21.90;;;;;;;20.10;26.10;99072.50;4966137;28;20034;-74
2022/03/15 08:52:58;;;;;;;40.45;22.63;;;;;;;19.41;26.68;99065.94;4971606;28;20170;-75
2022/03/15 08:55:28;;;;;;;32.78;21.27;;;;;;;19.22;26.94;99070.09;4987224;28;20026;-75
2022/03/15 08:57:53;;;;;;;33.05;20.05;;;;;;;19.69;26.56;99072.91;4991360;28;20033;-75
2022/03/15 09:00:19;;;;;;;40.33;21.17;;;;;;;18.89;26.39;99057.97;4976471;28;20030;-75
2022/03/15 09:02:45;;;;;;;39.97;20.85;;;;;;;18.34;27.04;99057.38;4979657;28;20034;-74
2022/03/15 09:05:14;;;;;;;38.25;18.52;;;;;;;17.86;26.95;99051.66;4981015;28;20525;-75
2022/03/15 09:07:40;;;;;;;37.83;21.00;;;;;;;19.35;26.62;99058.22;4973532;28;20422;-75
2022/03/15 09:10:06;;;;;;;31.98;19.98;;;;;;;20.41;25.18;99057.47;4989593;28;20041;-75
2022/03/15 09:12:32;;;;;;;33.65;20.42;;;;;;;20.61;24.85;99043.16;4978844;28;20030;-75
2022/03/15 09:14:58;;;;;;;30.83;18.50;;;;;;;21.23;24.01;99038.16;4958744;28;20030;-75
2022/03/15 09:17:24;;;;;;;24.92;15.57;;;;;;;21.84;23.83;99038.56;4990686;28;20512;-74
2022/03/15 09:19:51;;;;;;;16.85;10.45;;;;;;;18.85;25.07;99015.81;4990663;28;20026;-75
2022/03/15 09:22:17;;;;;;;15.70;9.68;;;;;;;18.64;25.39;99017.31;4984806;28;20026;-74
2022/03/15 09:24:42;;;;;;;18.15;12.60;;;;;;;19.80;24.99;98996.94;4976175;28;20026;-74
2022/03/15 09:27:08;;;;;;;20.45;13.00;;;;;;;21.29;24.49;99020.44;4986247;28;20029;-74
2022/03/15 09:29:34;;;;;;;25.60;12.35;;;;;;;20.31;24.35;99010.22;4962864;28;20080;-74
2022/03/15 09:31:59;;;;;;;23.88;13.55;;;;;;;21.34;23.90;98999.19;4978668;28;20033;-74
2022/03/15 09:34:26;;;;;;;25.17;15.15;;;;;;;21.80;22.95;98999.78;4990533;28;20422;-74
2022/03/15 09:36:52;;;;;;;23.42;12.15;;;;;;;23.05;22.18;98998.81;4958308;28;20027;-74
2022/03/15 09:39:21;;;;;;;33.83;13.13;;;;;;;21.93;22.10;98978.69;4969098;28;20027;-74
2022/03/15 09:41:50;;;;;;;20.05;11.90;;;;;;;22.24;22.02;98981.53;4980393;28;20498;-76
2022/03/15 09:44:18;;;;;;;20.42;9.88;;;;;;;22.98;19.98;98956.69;4966548;28;20026;-76
2022/03/15 09:46:50;;;;;;;21.27;12.15;;;;;;;24.22;19.48;98960.63;4982471;28;20470;-76
2022/03/15 09:49:19;;;;;;;22.38;14.18;;;;;;;22.28;20.31;98958.44;4977751;28;20025;-74
2022/03/15 09:51:48;;;;;;;38.67;12.75;;;;;;;21.48;20.68;98930.81;4983715;28;20042;-75
2022/03/15 09:54:14;;;;;;;12.38;5.45;;;;;;;21.61;18.24;98935.09;4990127;28;20065;-75
2022/03/15 09:56:41;;;;;;;10.50;6.95;;;;;;;23.27;17.22;98928.59;4955080;28;20089;-75
2022/03/15 09:59:14;;;;;;;14.82;6.50;;;;;;;24.44;16.62;98916.53;4983663;28;21326;-75
2022/03/15 10:01:41;;;;;;;10.27;5.43;;;;;;;23.80;16.47;98894.47;4999003;28;20093;-74
2022/03/15 10:04:08;;;;;;;14.52;7.82;;;;;;;22.73;19.97;98924.44;4965469;28;20073;-74
2022/03/15 10:06:34;;;;;;;10.65;7.10;;;;;;;23.80;17.25;98927.25;4979539;28;20061;-74
2022/03/15 10:09:00;;;;;;;10.98;4.50;;;;;;;23.18;15.47;98884.75;4980945;28;20493;-76
2022/03/15 10:11:25;;;;;;;9.18;4.40;;;;;;;23.02;15.42;98898.06;4980606;28;20042;-75
2022/03/15 10:13:51;;;;;;;10.52;5.97;;;;;;;23.49;14.67;98884.69;4979623;28;20066;-75
2022/03/15 10:16:17;;;;;;;7.60;5.88;;;;;;;24.45;14.28;98884.56;4965852;28;20394;-74
2022/03/15 10:18:56;;;;;;;7.03;4.00;;;;;;;23.48;14.80;98885.66;4954636;28;20027;-74
2022/03/15 10:21:25;;;;;;;9.40;4.10;;;;;;;22.62;15.56;98881.69;4955214;28;20047;-74
2022/03/15 10:23:57;;;;;;;6.38;4.45;;;;;;;22.34;15.75;98881.53;4981677;28;20078;-74
2022/03/15 10:26:27;;;;;;;6.43;4.13;;;;;;;22.71;15.87;98870.97;4979337;28;20030;-75
2022/03/15 10:28:54;;;;;;;10.95;4.38;;;;;;;24.21;14.92;98874.97;4985451;28;20094;-75
2022/03/15 10:31:26;;;;;;;7.97;5.55;;;;;;;25.20;13.68;98860.56;4974766;28;20034;-75
2022/03/15 10:33:53;;;;;;;9.73;7.25;;;;;;;24.86;14.24;98856.75;4974957;28;20034;-76
2022/03/15 10:36:20;;;;;;;12.35;6.05;;;;;;;25.60;13.44;98846.44;4965847;28;20030;-75
2022/03/15 10:38:47;;;;;;;8.38;5.53;;;;;;;25.78;13.32;98838.19;4982162;28;20034;-75
2022/03/15 10:41:16;;;;;;;6.00;4.13;;;;;;;27.78;12.23;98838.47;4961543;28;20049;-74
2022/03/15 10:43:42;;;;;;;7.72;3.63;;;;;;;26.70;12.49;98830.25;4985922;28;20045;-75
2022/03/15 10:46:10;;;;;;;10.93;5.55;;;;;;;24.74;13.16;98816.88;4985782;28;20035;-74
2022/03/15 10:48:36;;;;;;;5.70;4.15;;;;;;;25.81;12.80;98825.03;4985701;28;20074;-74
2022/03/15 10:51:09;;;;;;;5.30;3.80;;;;;;;25.47;12.88;98826.75;4980679;28;20510;-74
2022/03/15 10:53:44;;;;;;;12.48;3.90;;;;;;;26.59;13.01;98823.16;4970515;28;20034;-74
2022/03/15 10:56:15;;;;;;;7.45;4.43;;;;;;;26.85;12.33;98809.41;4968157;28;20176;-75
2022/03/15 10:59:01;;;;;;;6.57;4.50;;;;;;;27.79;11.93;98813.50;4983803;28;20121;-76
2022/03/15 11:01:29;;;;;;;15.57;9.07;;;;;;;28.92;11.57;98798.63;4966865;28;20372;-75
2022/03/15 11:04:03;;;;;;;6.35;4.07;;;;;;;28.88;11.27;98786.25;4977889;28;20070;-76
2022/03/15 11:06:37;;;;;;;6.57;3.60;;;;;;;28.33;11.06;98778.03;4982513;28;20041;-75
2022/03/15 11:09:15;;;;;;;6.72;3.75;;;;;;;27.63;11.55;98782.38;4999004;28;20030;-77
2022/03/15 11:11:42;;;;;;;7.75;4.20;;;;;;;28.09;11.90;98776.19;4979907;28;20085;-76
2022/03/15 11:14:09;;;;;;;5.90;4.43;;;;;;;28.44;11.09;98764.72;4986274;28;20022;-75
2022/03/15 11:16:37;;;;;;;6.55;4.95;;;;;;;26.74;11.88;98762.97;4985459;28;20050;-75
2022/03/15 11:19:04;;;;;;;11.50;5.90;;;;;;;26.66;12.36;98757.47;4984471;28;20054;-76
2022/03/15 11:21:33;;;;;;;6.80;4.68;;;;;;;25.19;12.32;98738.34;4965668;28;20502;-81
2022/03/15 11:24:01;;;;;;;33.22;5.32;;;;;;;24.45;12.99;98751.38;4973762;28;20085;-82
2022/03/15 11:26:34;;;;;;;49.42;9.48;;;;;;;25.12;13.65;98761.88;4973743;28;20089;-81
2022/03/15 11:29:03;;;;;;;6.18;4.18;;;;;;;24.63;13.26;98748.66;4973691;28;20467;-81
2022/03/15 11:31:30;;;;;;;12.10;3.25;;;;;;;24.69;13.15;98745.31;4961129;28;20121;-82
2022/03/15 11:33:58;;;;;;;9.20;4.60;;;;;;;24.43;13.25;98736.97;4981425;28;20113;-82
2022/03/15 11:36:24;;;;;;;7.50;4.47;;;;;;;22.41;13.46;98727.28;4976341;28;20085;-81
2022/03/15 11:38:51;;;;;;;7.57;4.75;;;;;;;21.97;14.11;98729.44;4994237;28;20022;-82
2022/03/15 11:41:17;;;;;;;7.15;4.18;;;;;;;22.92;14.43;98729.81;4979197;28;20058;-81
2022/03/15 11:44:02;;;;;;;6.95;3.30;;;;;;;23.36;13.30;98721.03;4973443;28;20061;-81
2022/03/15 11:46:36;;;;;;;8.18;3.95;;;;;;;24.80;12.95;98720.44;4981584;28;20447;-81
2022/03/15 11:49:14;;;;;;;4.85;3.33;;;;;;;22.37;13.55;98709.47;4973511;28;20118;-82
2022/03/15 11:52:18;;;;;;;8.82;4.60;;;;;;;23.49;13.78;98723.50;4973427;28;20038;-81
2022/03/15 11:55:03;;;;;;;8.18;4.20;;;;;;;24.80;14.12;98714.97;4983205;28;20014;-82
2022/03/15 11:57:47;;;;;;;11.93;5.28;;;;;;;25.23;13.91;98722.41;4992525;28;20482;-81
2022/03/15 12:00:31;;;;;;;10.05;5.35;;;;;;;24.20;14.59;98714.63;4992261;28;20439;-82
2022/03/15 12:02:59;;;;;;;15.15;8.10;;;;;;;24.37;15.13;98723.03;4987599;28;20069;-82
2022/03/15 12:05:25;;;;;;;22.95;8.30;;;;;;;24.97;14.85;98726.97;4991238;28;20050;-82
2022/03/15 12:08:15;;;;;;;11.45;5.50;;;;;;;26.61;14.23;98733.22;4966745;28;20019;-83
2022/03/15 12:10:50;;;;;;;6.40;4.68;;;;;;;25.22;14.59;98716.09;4989183;28;20037;-82
2022/03/15 12:13:16;;;;;;;8.77;5.43;;;;;;;24.83;14.98;98714.69;4984926;28;20205;-81
2022/03/15 12:15:45;;;;;;;5.97;4.43;;;;;;;25.55;14.14;98710.91;4972987;28;20116;-82
2022/03/15 12:21:07;;;;;;;6.43;4.40;;;;;;;24.30;14.79;98678.16;4992006;28;20062;-81
2022/03/15 12:23:45;;;;;;;5.97;4.60;;;;;;;24.97;14.70;98688.66;4983212;28;20027;-82
2022/03/15 12:26:18;;;;;;;10.57;5.97;;;;;;;24.83;14.65;98687.31;4992704;28;20051;-83
2022/03/15 12:28:55;;;;;;;12.10;8.38;;;;;;;25.35;14.09;98669.94;4988675;28;20134;-84
2022/03/15 12:31:41;;;;;;;9.60;5.63;;;;;;;24.31;15.09;98679.88;4974283;28;20030;-82
2022/03/15 12:34:16;;;;;;;33.20;22.98;;;;;;;22.74;14.83;98675.09;4992629;28;20544;-82
2022/03/15 12:36:52;;;;;;;5.57;4.10;;;;;;;23.90;14.29;98654.75;4981012;28;20106;-82